Weather observations for the past three days for
Hobbs / Lea County
Imperial (Metric)
Date Time (mdt) Wind (mph) Vis. (mi.) Weather Sky Cond. Temperature (ºF) Relative Humidity Wind Chill (°F) Heat Index (°F) Pressure Precipitation (in)
Air Dwpt 6 hour altimeter (in) sea level (mb) 1 hr 3 hr 6 hr
Max. Min.
02 20:35 SE 6 10.00 Partly Cloudy SCT100 87.8 51.8 29% 85 30 0.0
02 20:15 SE 8 10.00 Fair CLR 87.8 50 27% 85 30 0.0
02 18:55 S 9 10.00 Fair CLR 93.2 50 23% 90 29.98 0.0
02 18:35 S 7 10.00 Fair CLR 95 50 22% 92 29.98 0.0
02 18:15 S 7 10.00 Fair CLR 95 50 22% 92 29.98 0.0
02 17:50 S 9 10.00 Fair CLR 96.8 50 20% 94 29.98 0.0
02 16:50 SW 7 G 14 10.00 Partly Cloudy SCT100 96.8 50 20% 94 29.98 0.0
02 15:50 S 13 10.00 Partly Cloudy SCT100 98.6 50 19% 95 29.99 0.0
02 14:50 S 6 G 17 10.00 Partly Cloudy SCT100 95 51.8 23% 92 30.01 0.0
02 13:50 S 5 G 15 10.00 Partly Cloudy SCT100 96.8 51.8 22% 94 30.04 0.0
02 12:50 SW 14 10.00 Partly Cloudy SCT100 95 51.8 23% 92 30.07 0.0
02 11:50 SW 8 G 16 10.00 Mostly Cloudy BKN100 91.4 51.8 26% 89 30.1 0.0
02 10:50 S 13 10.00 Mostly Cloudy BKN100 91.4 53.6 28% 89 30.12 0.0
02 09:50 S 10 10.00 A Few Clouds FEW 86 57.2 38% 85 30.12 0.0
02 08:50 S 12 10.00 A Few Clouds FEW 82.4 57.2 42% 82 30.11 0.0
02 06:50 S 9 10.00 Partly Cloudy SCT 75.2 57.2 54% 78 30.09 0.0
02 05:50 S 9 10.00 A Few Clouds FEW 75.2 57.2 54% 78 30.08 0.0
02 05:35 S 8 10.00 A Few Clouds FEW060 75.2 57.2 54% 78 30.08 0.0
02 05:15 S 10 10.00 Fair CLR 75.2 57.2 54% 78 30.07 0.0
02 04:55 SE 8 10.00 Fair CLR 75.2 57.2 54% 78 30.08 0.0
02 04:35 S 9 10.00 Fair CLR 77 57.2 51% 79 30.08 0.0
02 04:15 S 8 10.00 Fair CLR 77 57.2 51% 79 30.08 0.0
02 03:55 S 8 10.00 Fair CLR 77 55.4 47% 79 30.08 0.0
02 03:35 S 6 10.00 Fair CLR 77 55.4 47% 79 30.08 0.0
02 02:55 S 7 10.00 Fair CLR 77 55.4 47% 79 30.09 0.0
02 02:35 S 7 10.00 A Few Clouds FEW095 77 57.2 51% 79 30.09 0.0
02 02:15 SE 5 10.00 Mostly Cloudy BKN095 77 57.2 51% 79 30.09 0.0
02 01:55 S 3 10.00 Overcast OVC090 78.8 57.2 48% 80 30.1 0.0
02 01:35 Calm 10.00 Mostly Cloudy BKN090 77 57.2 51% 79 30.1 0.0
02 01:15 Calm 10.00 Fair CLR 78.8 57.2 48% 80 30.1 0.0
02 00:55 S 5 10.00 Fair CLR 78.8 57.2 48% 80 30.09 0.0
02 00:35 S 5 10.00 A Few Clouds FEW110 78.8 57.2 48% 80 30.08 0.0
02 00:15 SW 6 10.00 Mostly Cloudy BKN110 80.6 59 48% 81 30.09 0.0
01 23:55 W 14 G 24 10.00 A Few Clouds FEW080 FEW095 78.8 59 51% 80 30.1 0.0
01 23:35 W 22 G 33 10.00 Thunderstorm and Breezy BKN080 OVC095 78.8 59 51% 80 30.1 0.0
01 23:15 W 17 G 25 10.00 Thunderstorm in Vicinity FEW046 OVC080 78.8 55.4 45% 79 30.1 0.0
01 22:55 W 17 G 24 10.00 Thunderstorm FEW046 SCT065 OVC080 78.8 57.2 48% 80 30.1 0.0
01 22:35 W 18 G 25 10.00 Thunderstorm in Vicinity FEW055 BKN080 OVC100 82.4 57.2 42% 82 30.1 0.0
01 22:15 SE 10 10.00 Thunderstorm in Vicinity OVC100 84.2 51.8 33% 82 30.08 0.0
01 21:55 SE 13 10.00 Overcast OVC110 84.2 51.8 33% 82 30.07 0.0
01 21:35 SE 15 G 21 10.00 Overcast OVC110 86 51.8 31% 84 30.06 0.0
01 21:15 SE 15 10.00 Mostly Cloudy BKN110 86 51.8 31% 84 30.05 0.0
01 20:55 SE 14 G 20 10.00 Mostly Cloudy BKN110 86 51.8 31% 84 30.04 0.0
01 20:35 SE 14 10.00 Mostly Cloudy BKN110 87.8 51.8 29% 85 30.04 0.0
01 20:15 SE 12 10.00 Fair CLR 87.8 51.8 29% 85 30.03 0.0
01 19:55 SE 13 10.00 A Few Clouds FEW110 87.8 51.8 29% 85 30.02 0.0
01 19:35 SE 12 10.00 Fair CLR 89.6 51.8 27% 87 30.02 0.0
01 19:15 SE 13 G 18 10.00 Fair CLR 89.6 51.8 27% 87 30.01 0.0
01 18:55 SE 13 10.00 Fair CLR 91.4 51.8 26% 89 30.01 0.0
01 18:35 SE 12 10.00 Fair CLR 91.4 51.8 26% 89 30 0.0
01 18:15 SE 14 10.00 Fair CLR 93.2 51.8 24% 90 30 0.0
01 17:50 SE 14 10.00 Partly Cloudy SCT100 93.2 51.8 24% 90 30 0.0
01 16:50 E 15 10.00 Mostly Cloudy BKN090 95 51.8 23% 92 30 0.0
01 15:50 Vrbl 5 10.00 A Few Clouds FEW110 95 48.2 20% 92 30.01 0.0
01 14:50 S 8 10.00 Partly Cloudy FEW085 SCT120 95 51.8 23% 92 30.04 0.0
01 13:50 W 3 10.00 Partly Cloudy SCT080 93.2 50 23% 90 30.06 0.0
01 12:50 SE 8 10.00 Mostly Cloudy BKN080 91.4 53.6 28% 89 30.08 0.0
01 11:50 S 8 G 18 10.00 A Few Clouds FEW065 89.6 57.2 33% 88 30.11 0.0
01 10:50 S 12 G 18 10.00 Fair CLR 86 59 40% 85 30.12 0.0
01 09:50 S 14 10.00 Fair CLR 82.4 60.8 48% 83 30.12 0.0
01 08:50 SE 16 10.00 Fair CLR 78.8 60.8 54% 80 30.11 0.0
01 07:50 SE 14 10.00 A Few Clouds FEW100 77 60.8 57% 79 30.12 0.0
01 05:50 SE 13 10.00 Partly Cloudy SCT095 73.4 59 61% 30.09 0.0
01 05:35 SE 12 G 17 10.00 A Few Clouds FEW095 75.2 59 57% 78 30.09 0.0
01 05:15 SE 12 10.00 Partly Cloudy SCT095 75.2 59 57% 78 30.09 0.0
01 04:55 SE 9 10.00 A Few Clouds FEW100 73.4 59 61% 30.09 0.0
01 04:35 SE 7 10.00 Fair CLR 73.4 59 61% 30.09 0.0
01 04:15 SE 9 10.00 Fair CLR 73.4 57.2 57% 30.09 0.0
01 03:55 SE 9 10.00 Fair CLR 75.2 57.2 54% 78 30.09 0.0
01 03:35 S 8 10.00 Fair CLR 75.2 57.2 54% 78 30.09 0.0
01 03:15 SE 9 10.00 Fair CLR 75.2 57.2 54% 78 30.09 0.0
01 02:55 S 10 10.00 Fair CLR 77 57.2 51% 79 30.09 0.0
01 02:35 S 13 10.00 Fair CLR 77 57.2 51% 79 30.08 0.0
01 02:15 S 14 10.00 Fair CLR 77 55.4 47% 79 30.08 0.0
01 01:55 S 10 10.00 Fair CLR 77 55.4 47% 79 30.08 0.0
01 01:35 S 9 10.00 Fair CLR 77 53.6 44% 78 30.08 0.0
01 01:15 S 7 10.00 Fair CLR 77 53.6 44% 78 30.08 0.0
01 00:55 S 8 10.00 Fair CLR 77 51.8 42% 78 30.08 0.0
01 00:35 S 7 10.00 Fair CLR 77 51.8 42% 78 30.08 0.0
01 00:15 SE 7 10.00 Fair CLR 77 51.8 42% 78 30.08 0.0
31 23:55 SE 8 10.00 Fair CLR 78.8 51.8 39% 79 30.08 0.0
31 23:35 SE 8 10.00 Fair CLR 78.8 51.8 39% 79 30.07 0.0
31 23:15 SE 9 10.00 Fair CLR 78.8 51.8 39% 79 30.07 0.0
31 22:55 SE 7 10.00 Fair CLR 80.6 51.8 37% 80 30.07 0.0
31 22:35 SE 8 10.00 Fair CLR 80.6 51.8 37% 80 30.07 0.0
31 22:15 SE 10 10.00 Fair CLR 82.4 51.8 35% 81 30.06 0.0
31 21:55 SE 12 10.00 Fair CLR 82.4 51.8 35% 81 30.06 0.0
31 21:35 SE 10 10.00 Fair CLR 84.2 51.8 33% 82 30.06 0.0
31 21:15 SE 12 10.00 Fair CLR 84.2 51.8 33% 82 30.05 0.0
31 20:55 SE 13 10.00 Fair CLR 86 51.8 31% 84 30.04 0.0
31 20:35 SE 14 10.00 Fair CLR 86 53.6 33% 84 30.02 0.0
31 20:15 SE 16 10.00 Fair CLR 87.8 53.6 31% 86 30 0.0
31 19:55 SE 16 G 23 10.00 Fair CLR 87.8 53.6 31% 86 29.99 0.0
31 19:35 SE 15 10.00 Fair CLR 89.6 51.8 27% 87 29.99 0.0
31 19:15 SE 16 G 24 10.00 Fair CLR 89.6 51.8 27% 87 29.98 0.0
31 18:55 SE 14 G 22 10.00 Fair CLR 91.4 50 24% 88 29.97 0.0
31 18:35 SE 17 10.00 Fair CLR 91.4 50 24% 88 29.97 0.0
31 18:15 SE 12 G 20 10.00 A Few Clouds FEW090 93.2 50 23% 90 29.98 0.0
31 17:50 SE 14 G 21 10.00 A Few Clouds FEW090 93.2 51.8 24% 90 29.98 0.0
31 16:50 E 16 10.00 Partly Cloudy SCT090 95 51.8 23% 92 29.98 0.0
31 15:50 E 8 10.00 Partly Cloudy SCT090 95 50 22% 92 30.01 0.0
31 14:50 NE 12 10.00 Partly Cloudy SCT100 95 50 22% 92 30.03 0.0
31 13:50 E 12 10.00 Partly Cloudy SCT080 93.2 51.8 24% 90 30.05 0.0
31 12:50 E 9 G 17 10.00 A Few Clouds FEW060 93.2 53.6 26% 91 30.07 0.0
31 11:50 SE 10 G 16 10.00 A Few Clouds FEW060 89.6 57.2 33% 88 30.09 0.0
31 10:50 SE 12 G 18 10.00 A Few Clouds FEW060 87.8 60.8 40% 88 30.1 0.0
31 09:50 S 16 10.00 Fair CLR 82.4 62.6 51% 83 30.1 0.0
31 08:50 S 15 10.00 Fair CLR 78.8 62.6 58% 80 30.1 0.0
31 07:50 S 16 10.00 Fair CLR 75.2 60.8 61% 77 30.09 0.0
31 06:50 SE 6 10.00 Fair CLR 69.8 57.2 64% 30.07 0.0
31 05:50 SE 9 10.00 Fair CLR 73.4 57.2 57% 30.06 0.0
31 03:35 S 13 G 18 10.00 Fair CLR 77 57.2 51% 79 30.05 0.0
31 00:15 S 8 10.00 Fair CLR 78.8 51.8 39% 79 30.05 0.0
30 23:55 S 9 10.00 Fair CLR 80.6 51.8 37% 80 30.05 0.0
30 23:35 S 9 10.00 Fair CLR 80.6 50 34% 80 30.05 0.0
30 23:15 SE 7 10.00 Fair CLR 78.8 50 37% 79 30.05 0.0
30 22:55 SE 8 10.00 Fair CLR 80.6 50 34% 80 30.05 0.0
30 22:35 SE 8 10.00 Fair CLR 80.6 51.8 37% 80 30.04 0.0
30 22:15 SE 8 10.00 Fair CLR 82.4 51.8 35% 81 30.04 0.0
30 21:55 SE 9 10.00 Fair CLR 84.2 51.8 33% 82 30.03 0.0
30 21:35 SE 10 10.00 Fair CLR 84.2 51.8 33% 82 30.03 0.0
30 21:15 SE 13 10.00 Fair CLR 86 51.8 31% 84 30.02 0.0
30 20:55 SE 10 10.00 Fair CLR 86 50 29% 84 30.01 0.0
Date Time (mdt) Wind (mph) Vis. (mi.) Weather Sky Cond. Air Dwpt Max. Min. Relative Humidity Wind Chill (°F) Heat Index (°F) altimeter (in) sea level (mb) 1 hr 3 hr 6 hr
6 hour
Temperature (ºF) Pressure Precipitation (in)